Time;durP1;ratioP1;P1;durP2;ratioP2;P2;SDS_P1;SDS_P2;PMS_P1;PMS_P2;Temp;Humidity;BMP_temperature;BMP_pressure;BME280_temperature;BME280_humidity;BME280_pressure;Samples;Min_cycle;Max_cycle;Signal;HPM_P1;HPM_P2
2023/03/14 00:01:27;;;;;;;5.10;1.50;;;12.10;99.90;;;;;;4179910;28;20071;-71
2023/03/14 00:03:28;;;;;;;5.05;1.35;;;12.20;99.90;;;;;;4180555;28;20055;-70
2023/03/14 00:05:29;;;;;;;7.38;1.92;;;12.20;99.90;;;;;;4179746;28;20048;-70
2023/03/14 00:07:33;;;;;;;6.35;1.60;;;12.20;99.90;;;;;;4180279;28;20120;-70
2023/03/14 00:09:34;;;;;;;8.38;1.88;;;12.20;99.90;;;;;;4180208;28;20127;-71
2023/03/14 00:11:34;;;;;;;5.07;1.55;;;12.20;99.90;;;;;;4179731;28;20484;-70
2023/03/14 00:13:35;;;;;;;7.25;2.03;;;12.20;99.90;;;;;;4180413;28;20349;-70
2023/03/14 00:15:36;;;;;;;6.07;1.65;;;12.20;99.90;;;;;;4179606;28;20033;-71
2023/03/14 00:17:37;;;;;;;6.47;1.90;;;12.30;99.90;;;;;;4180345;28;20033;-72
2023/03/14 00:19:38;;;;;;;9.75;2.75;;;12.20;99.90;;;;;;4180212;28;20037;-72
2023/03/14 00:21:38;;;;;;;6.65;2.22;;;12.30;99.90;;;;;;4187936;28;20111;-74
2023/03/14 00:23:41;;;;;;;9.00;2.03;;;12.20;99.90;;;;;;4196649;28;20032;-73
2023/03/14 00:25:41;;;;;;;4.97;2.03;;;12.10;99.90;;;;;;4196133;28;20036;-74
2023/03/14 00:27:42;;;;;;;7.55;1.90;;;12.10;99.90;;;;;;4196708;28;20108;-74
2023/03/14 00:29:43;;;;;;;3.22;1.30;;;12.10;99.90;;;;;;4196579;28;20041;-74
2023/03/14 00:31:44;;;;;;;4.25;1.55;;;12.10;99.90;;;;;;4195956;28;20036;-74
2023/03/14 00:33:45;;;;;;;12.38;2.20;;;12.10;99.90;;;;;;4196806;28;20112;-74
2023/03/14 00:36:00;;;;;;;6.68;1.73;;;12.00;99.90;;;;;;4194763;28;20093;-74
2023/03/14 00:38:00;;;;;;;6.35;1.73;;;12.00;99.90;;;;;;4195027;28;20041;-74
2023/03/14 00:40:01;;;;;;;6.03;1.83;;;12.00;99.90;;;;;;4196314;28;20040;-73
2023/03/14 00:42:01;;;;;;;6.97;1.85;;;11.90;99.90;;;;;;4195679;28;20075;-73
2023/03/14 00:44:02;;;;;;;7.18;1.95;;;11.90;99.90;;;;;;4196480;28;20098;-74
2023/03/14 00:46:03;;;;;;;9.75;2.10;;;11.90;99.90;;;;;;4195709;28;20090;-75
2023/03/14 00:48:03;;;;;;;7.35;1.63;;;11.90;99.90;;;;;;4196027;28;20028;-74
2023/03/14 00:50:04;;;;;;;7.15;1.67;;;11.80;99.90;;;;;;4195684;28;20422;-75
2023/03/14 00:52:05;;;;;;;6.05;1.75;;;11.80;99.90;;;;;;4196064;28;20075;-75
2023/03/14 00:54:06;;;;;;;5.65;1.52;;;11.80;99.90;;;;;;4196083;28;20028;-75
2023/03/14 00:56:09;;;;;;;6.72;1.50;;;11.70;99.90;;;;;;4194911;28;20033;-75
2023/03/14 00:58:11;;;;;;;5.25;1.65;;;11.60;99.90;;;;;;4196143;28;20036;-75
2023/03/14 01:00:13;;;;;;;9.77;2.22;;;11.60;99.90;;;;;;4195301;28;20471;-75
2023/03/14 01:02:13;;;;;;;5.63;1.40;;;11.60;99.90;;;;;;4196083;28;20033;-75
2023/03/14 01:04:14;;;;;;;5.35;0.90;;;11.60;99.90;;;;;;4195592;28;20136;-75
2023/03/14 01:06:17;;;;;;;3.60;1.00;;;11.50;99.90;;;;;;4195198;28;20044;-75
2023/03/14 01:08:17;;;;;;;6.88;1.65;;;11.50;99.90;;;;;;4196108;28;20037;-75
2023/03/14 01:10:18;;;;;;;5.78;1.52;;;11.50;99.90;;;;;;4195298;28;20390;-75
2023/03/14 01:12:18;;;;;;;6.00;1.63;;;11.50;99.90;;;;;;4195640;28;20032;-75
2023/03/14 01:14:19;;;;;;;5.70;1.35;;;11.40;99.90;;;;;;4196009;28;20055;-75
2023/03/14 01:16:22;;;;;;;5.07;1.30;;;11.50;99.90;;;;;;4195121;28;20028;-75
2023/03/14 01:18:22;;;;;;;;;;;11.50;99.90;;;;;;4196403;28;20040;-75
2023/03/14 01:20:23;;;;;;;5.53;1.27;;;11.40;99.90;;;;;;4195052;28;20429;-75
2023/03/14 01:22:23;;;;;;;4.30;1.05;;;11.40;99.90;;;;;;4195866;28;20082;-75
2023/03/14 01:24:24;;;;;;;4.20;1.42;;;11.50;99.90;;;;;;4195810;28;20048;-75
2023/03/14 01:26:26;;;;;;;4.43;1.50;;;11.50;99.90;;;;;;4195119;28;20040;-75
2023/03/14 01:28:26;;;;;;;6.43;1.63;;;11.40;99.90;;;;;;4195570;28;20024;-75
2023/03/14 01:30:27;;;;;;;4.13;1.30;;;11.40;99.90;;;;;;4194814;28;20105;-75
2023/03/14 01:32:28;;;;;;;7.47;1.55;;;11.40;99.90;;;;;;4195538;28;20025;-74
2023/03/14 01:34:28;;;;;;;6.13;1.48;;;11.40;99.90;;;;;;4195541;28;20112;-74
2023/03/14 01:36:29;;;;;;;6.13;1.40;;;11.40;99.90;;;;;;4194991;28;20028;-74
2023/03/14 01:38:31;;;;;;;3.25;1.33;;;11.30;99.90;;;;;;4195708;28;20043;-74
2023/03/14 01:40:31;;;;;;;4.00;1.27;;;11.30;99.90;;;;;;4194409;28;20127;-74
2023/03/14 01:42:32;;;;;;;6.78;1.25;;;11.30;99.90;;;;;;4195534;28;20033;-74
2023/03/14 01:44:52;;;;;;;3.53;1.08;;;11.30;99.90;;;;;;4193754;28;20063;-74
2023/03/14 01:46:53;;;;;;;2.63;1.25;;;11.30;99.90;;;;;;4194519;28;20064;-75
2023/03/14 01:49:03;;;;;;;4.15;1.40;;;11.20;99.90;;;;;;4195359;28;20418;-74
2023/03/14 01:51:08;;;;;;;6.15;1.10;;;11.20;99.90;;;;;;4193787;28;20115;-74
2023/03/14 01:53:08;;;;;;;6.78;1.55;;;11.10;99.90;;;;;;4195345;28;20115;-74
2023/03/14 01:55:15;;;;;;;4.13;0.98;;;11.20;99.90;;;;;;4194890;28;20032;-75
2023/03/14 01:57:39;;;;;;;4.00;1.25;;;11.20;99.90;;;;;;4195661;28;20430;-75
2023/03/14 01:59:42;;;;;;;6.03;1.27;;;11.10;99.90;;;;;;4195251;28;20098;-74
2023/03/14 02:01:46;;;;;;;3.08;1.13;;;11.10;99.90;;;;;;4194064;28;20081;-75
2023/03/14 02:03:53;;;;;;;5.53;1.30;;;11.10;99.90;;;;;;4195131;28;20036;-74
2023/03/14 02:05:57;;;;;;;3.53;0.90;;;11.10;99.90;;;;;;4194565;28;20049;-74
2023/03/14 02:08:00;;;;;;;1.65;0.65;;;11.10;99.90;;;;;;4195121;28;20036;-74
2023/03/14 02:10:02;;;;;;;4.68;1.30;;;11.10;99.90;;;;;;4194639;28;20047;-73
2023/03/14 02:12:04;;;;;;;4.22;1.10;;;11.10;99.90;;;;;;4194829;28;20024;-74
2023/03/14 02:14:05;;;;;;;8.18;1.75;;;11.10;99.90;;;;;;4195286;28;20071;-75
2023/03/14 02:16:06;;;;;;;4.38;1.17;;;11.10;99.90;;;;;;4194164;28;20112;-74
2023/03/14 02:18:08;;;;;;;5.97;1.27;;;11.10;99.90;;;;;;4195065;28;20067;-74
2023/03/14 02:20:26;;;;;;;5.40;1.52;;;11.10;99.90;;;;;;4194577;28;20464;-74
2023/03/14 02:22:27;;;;;;;3.13;0.77;;;11.10;99.90;;;;;;4195295;28;20167;-74
2023/03/14 02:25:02;;;;;;;4.78;1.00;;;11.10;99.90;;;;;;4195025;28;20028;-74
2023/03/14 02:27:10;;;;;;;6.38;1.55;;;11.10;99.90;;;;;;4193299;28;20530;-74
2023/03/14 02:29:10;;;;;;;2.58;1.00;;;11.10;99.90;;;;;;4195059;28;20032;-75
2023/03/14 02:31:11;;;;;;;4.15;1.05;;;11.10;99.90;;;;;;4194303;28;20119;-74
2023/03/14 02:33:20;;;;;;;3.75;1.10;;;11.10;99.90;;;;;;4195064;28;20414;-74
2023/03/14 02:35:24;;;;;;;4.13;1.33;;;11.10;99.90;;;;;;4194459;28;20036;-74
2023/03/14 02:37:42;;;;;;;2.95;1.10;;;11.10;99.90;;;;;;4195082;28;20033;-74
2023/03/14 02:39:45;;;;;;;5.35;1.60;;;11.10;99.90;;;;;;4194767;28;20119;-74
2023/03/14 02:41:46;;;;;;;4.07;1.50;;;11.00;99.90;;;;;;4194321;28;20040;-74
2023/03/14 02:43:46;;;;;;;4.65;1.33;;;11.10;99.90;;;;;;4195054;28;20115;-74
2023/03/14 02:45:48;;;;;;;8.27;2.08;;;11.10;99.90;;;;;;4194155;28;20037;-74
2023/03/14 02:47:54;;;;;;;6.00;1.48;;;11.00;99.90;;;;;;4195061;28;20128;-74
2023/03/14 02:50:01;;;;;;;5.35;1.48;;;11.00;99.90;;;;;;4195032;28;20036;-74
2023/03/14 02:52:02;;;;;;;6.80;2.10;;;11.00;99.90;;;;;;4193629;28;20035;-74
2023/03/14 02:54:03;;;;;;;8.52;1.88;;;11.00;99.90;;;;;;4194947;28;20367;-74
2023/03/14 02:56:05;;;;;;;10.18;1.92;;;11.00;99.90;;;;;;4192337;28;20471;-74
2023/03/14 02:58:05;;;;;;;7.55;2.00;;;11.00;99.90;;;;;;4178383;28;20029;-74
2023/03/14 03:00:07;;;;;;;9.90;2.03;;;11.00;99.90;;;;;;4180677;28;20045;-75
2023/03/14 03:02:08;;;;;;;6.13;1.67;;;11.00;99.90;;;;;;4181284;28;20532;-74
2023/03/14 03:04:08;;;;;;;6.72;1.98;;;11.00;99.90;;;;;;4191545;28;20028;-74
2023/03/14 03:06:09;;;;;;;7.22;1.80;;;11.00;99.90;;;;;;4197292;28;20033;-74
2023/03/14 03:08:10;;;;;;;10.43;2.08;;;11.00;99.90;;;;;;4198154;28;20083;-74
2023/03/14 03:10:11;;;;;;;7.05;1.92;;;11.00;99.90;;;;;;4197133;28;20067;-73
2023/03/14 03:12:12;;;;;;;6.07;1.48;;;11.00;99.90;;;;;;4197688;28;20036;-74
2023/03/14 03:14:13;;;;;;;7.55;1.77;;;11.10;99.90;;;;;;4197896;28;20030;-74
2023/03/14 03:16:14;;;;;;;8.88;1.70;;;11.00;99.90;;;;;;4195658;28;20384;-74
2023/03/14 03:18:15;;;;;;;11.50;2.35;;;11.00;99.90;;;;;;4197853;28;20533;-74
2023/03/14 03:20:16;;;;;;;4.85;1.42;;;11.00;99.90;;;;;;4196996;28;20044;-74
2023/03/14 03:22:16;;;;;;;5.30;1.50;;;11.00;99.90;;;;;;4197785;28;20032;-74
2023/03/14 03:24:17;;;;;;;7.35;1.83;;;11.00;99.90;;;;;;4197680;28;20036;-74
2023/03/14 03:26:17;;;;;;;6.82;1.55;;;11.10;99.90;;;;;;4196976;28;20029;-74
2023/03/14 03:28:19;;;;;;;7.57;1.60;;;11.00;99.90;;;;;;4197648;28;20037;-74
2023/03/14 03:30:20;;;;;;;8.13;2.00;;;11.00;99.90;;;;;;4195273;28;20044;-74
2023/03/14 03:32:20;;;;;;;7.38;2.05;;;11.00;99.90;;;;;;4197481;28;20043;-74
2023/03/14 03:34:21;;;;;;;8.73;2.03;;;11.00;99.90;;;;;;4197716;28;20059;-74
2023/03/14 03:36:23;;;;;;;6.55;1.83;;;11.10;99.90;;;;;;4196682;28;20045;-74
2023/03/14 03:38:24;;;;;;;;;;;11.10;99.90;;;;;;4198166;28;20037;-74
2023/03/14 03:40:24;;;;;;;8.90;1.95;;;11.00;99.90;;;;;;4196847;28;20365;-74
2023/03/14 03:42:26;;;;;;;5.35;1.77;;;11.10;99.90;;;;;;4197296;28;20028;-74
2023/03/14 03:44:27;;;;;;;7.10;1.73;;;11.10;99.90;;;;;;4197509;28;20464;-74
2023/03/14 03:46:27;;;;;;;5.38;1.60;;;11.10;99.90;;;;;;4196678;28;20266;-74
2023/03/14 03:48:28;;;;;;;5.15;1.25;;;11.00;99.90;;;;;;4197357;28;20032;-74
2023/03/14 03:50:28;;;;;;;9.98;2.40;;;11.10;99.90;;;;;;4196408;28;20481;-74
2023/03/14 03:52:29;;;;;;;7.22;1.80;;;11.10;99.90;;;;;;4197137;28;20376;-74
2023/03/14 03:54:30;;;;;;;10.02;1.60;;;11.10;99.90;;;;;;4197074;28;20033;-72
2023/03/14 03:56:31;;;;;;;6.35;1.50;;;11.10;99.90;;;;;;4196463;28;20111;-72
2023/03/14 03:58:31;;;;;;;7.20;1.63;;;11.10;99.90;;;;;;4195408;28;20032;-71
2023/03/14 04:00:33;;;;;;;8.27;1.70;;;11.10;99.90;;;;;;4196431;28;20123;-72
2023/03/14 04:02:33;;;;;;;6.25;1.83;;;11.00;99.90;;;;;;4197118;28;20523;-73
2023/03/14 04:04:34;;;;;;;5.75;1.52;;;11.10;99.90;;;;;;4196876;28;20044;-73
2023/03/14 04:06:34;;;;;;;6.40;2.00;;;11.00;99.90;;;;;;4196210;28;20024;-73
2023/03/14 04:08:35;;;;;;;7.15;1.58;;;11.00;99.90;;;;;;4197047;28;20071;-73
2023/03/14 04:10:36;;;;;;;8.88;2.08;;;11.00;99.90;;;;;;4195811;28;20036;-74
2023/03/14 04:12:37;;;;;;;10.18;1.70;;;11.00;99.90;;;;;;4196512;28;20044;-73
2023/03/14 04:14:37;;;;;;;8.68;2.00;;;11.00;99.90;;;;;;4197014;28;20025;-73
2023/03/14 04:16:38;;;;;;;4.80;1.20;;;11.00;99.90;;;;;;4196182;28;20112;-73
2023/03/14 04:18:38;;;;;;;7.25;1.42;;;11.00;99.90;;;;;;4196684;28;20466;-74
2023/03/14 04:20:39;;;;;;;6.03;1.40;;;10.90;99.90;;;;;;4196004;28;20399;-74
2023/03/14 04:22:39;;;;;;;5.60;1.55;;;10.90;99.90;;;;;;4196660;28;20036;-75
2023/03/14 04:24:40;;;;;;;8.88;1.33;;;10.90;99.90;;;;;;4195405;28;20063;-75
2023/03/14 04:26:41;;;;;;;5.55;1.00;;;10.90;99.90;;;;;;4196165;28;20121;-75
2023/03/14 04:28:41;;;;;;;6.85;1.48;;;10.90;99.90;;;;;;4196762;28;20040;-75
2023/03/14 04:30:42;;;;;;;4.70;1.25;;;10.90;99.90;;;;;;4195920;28;20102;-75
2023/03/14 04:32:43;;;;;;;6.75;1.25;;;10.90;99.90;;;;;;4196447;28;20036;-76
2023/03/14 04:34:43;;;;;;;4.35;1.40;;;10.80;99.90;;;;;;4196213;28;20395;-74
2023/03/14 04:36:44;;;;;;;6.68;1.30;;;10.70;99.90;;;;;;4195599;28;20125;-75
2023/03/14 04:38:45;;;;;;;6.07;1.27;;;10.70;99.90;;;;;;4196568;28;20445;-75
2023/03/14 04:40:45;;;;;;;4.45;1.13;;;10.70;99.90;;;;;;4195440;28;20051;-75
2023/03/14 04:42:46;;;;;;;4.90;0.90;;;10.70;99.90;;;;;;4196552;28;20044;-75
2023/03/14 04:44:49;;;;;;;4.22;0.90;;;10.60;99.90;;;;;;4196584;28;20415;-75
2023/03/14 04:46:49;;;;;;;2.67;0.90;;;10.60;99.90;;;;;;4195770;28;20112;-75
2023/03/14 04:48:50;;;;;;;2.30;0.70;;;10.60;99.90;;;;;;4196395;28;20036;-75
2023/03/14 04:50:51;;;;;;;3.42;1.15;;;10.60;99.90;;;;;;4195751;28;20048;-75
2023/03/14 04:52:51;;;;;;;3.60;0.98;;;10.50;99.90;;;;;;4196476;28;20064;-75
2023/03/14 04:54:52;;;;;;;3.00;0.60;;;10.50;99.90;;;;;;4194106;28;20079;-76
2023/03/14 04:56:52;;;;;;;2.22;0.60;;;10.40;99.90;;;;;;4178633;28;20116;-75
2023/03/14 04:58:53;;;;;;;1.67;0.70;;;10.40;99.90;;;;;;4183074;28;20162;-75
2023/03/14 05:00:54;;;;;;;2.53;0.60;;;10.40;99.90;;;;;;4195005;28;20043;-75
2023/03/14 05:02:54;;;;;;;3.30;0.70;;;10.40;99.90;;;;;;4196051;28;20032;-75
2023/03/14 05:04:55;;;;;;;2.58;0.70;;;10.40;99.90;;;;;;4196131;28;20532;-75
2023/03/14 05:06:55;;;;;;;2.00;0.63;;;10.40;99.90;;;;;;4193949;28;20151;-75
2023/03/14 05:08:56;;;;;;;4.85;0.88;;;10.40;99.90;;;;;;4194656;28;20043;-75
2023/03/14 05:10:58;;;;;;;1.27;0.55;;;10.30;99.90;;;;;;4195302;28;20119;-75
2023/03/14 05:12:58;;;;;;;3.05;0.63;;;10.30;99.90;;;;;;4196221;28;20452;-75
2023/03/14 05:14:59;;;;;;;1.23;0.35;;;10.30;99.90;;;;;;4195955;28;20075;-75
2023/03/14 05:16:59;;;;;;;2.45;0.70;;;10.30;99.90;;;;;;4195158;28;20036;-75
2023/03/14 05:19:01;;;;;;;3.10;0.77;;;10.30;99.90;;;;;;4195555;28;20112;-75
2023/03/14 05:21:02;;;;;;;1.73;0.45;;;10.30;99.90;;;;;;4194664;28;20060;-75
2023/03/14 05:23:02;;;;;;;7.00;0.80;;;10.20;99.90;;;;;;4195350;28;20070;-73
2023/03/14 05:25:03;;;;;;;2.33;0.60;;;10.20;99.90;;;;;;4195773;28;20486;-75
2023/03/14 05:27:04;;;;;;;0.98;0.40;;;10.20;99.90;;;;;;4195373;28;20471;-75
2023/03/14 05:29:04;;;;;;;5.25;0.80;;;10.20;99.90;;;;;;4195659;28;20055;-75
2023/03/14 05:31:07;;;;;;;1.92;0.60;;;10.20;99.90;;;;;;4182408;28;20033;-75
2023/03/14 05:33:08;;;;;;;;;;;10.30;99.90;;;;;;4179233;28;20040;-76
2023/03/14 05:35:08;;;;;;;1.52;0.40;;;10.20;99.90;;;;;;4178308;28;19909;-75
2023/03/14 05:37:09;;;;;;;3.95;0.50;;;10.20;99.90;;;;;;4178519;28;20043;-75
2023/03/14 05:39:09;;;;;;;2.42;0.60;;;10.20;99.90;;;;;;4178406;28;20535;-76
2023/03/14 05:41:10;;;;;;;2.17;0.75;;;10.30;99.90;;;;;;4193227;28;20032;-75
2023/03/14 05:43:10;;;;;;;2.33;0.55;;;10.20;99.90;;;;;;4195896;28;20025;-75
2023/03/14 05:45:11;;;;;;;3.20;0.60;;;10.20;99.90;;;;;;4195043;28;20490;-76
2023/03/14 05:47:12;;;;;;;0.73;0.30;;;10.20;99.90;;;;;;4195628;28;20048;-75
2023/03/14 05:49:12;;;;;;;1.40;0.60;;;10.30;99.90;;;;;;4195498;28;20066;-75
2023/03/14 05:51:13;;;;;;;1.23;0.43;;;10.30;99.90;;;;;;4194641;28;20032;-76
2023/03/14 05:53:14;;;;;;;1.38;0.52;;;10.30;99.90;;;;;;4195499;28;20043;-75
2023/03/14 05:55:14;;;;;;;2.50;0.77;;;10.20;99.90;;;;;;4194500;28;20036;-75
2023/03/14 05:57:15;;;;;;;1.48;0.70;;;10.30;99.90;;;;;;4195761;28;20058;-76
2023/03/14 05:59:15;;;;;;;2.33;0.88;;;10.30;99.90;;;;;;4195197;28;20387;-76
2023/03/14 06:01:16;;;;;;;3.92;0.90;;;10.30;99.90;;;;;;4194704;28;20428;-76
2023/03/14 06:03:17;;;;;;;2.67;0.70;;;10.20;99.90;;;;;;4181509;28;20029;-76
2023/03/14 06:05:17;;;;;;;2.17;0.60;;;10.20;99.90;;;;;;4177414;28;20044;-76
2023/03/14 06:07:18;;;;;;;3.15;0.80;;;10.20;99.90;;;;;;4178538;28;20083;-76
2023/03/14 06:09:19;;;;;;;4.35;0.75;;;10.20;99.90;;;;;;4178451;28;20536;-76
2023/03/14 06:11:20;;;;;;;1.50;0.45;;;10.30;99.90;;;;;;4177698;28;20384;-76
2023/03/14 06:13:21;;;;;;;1.23;0.70;;;10.30;99.90;;;;;;4178486;28;20033;-76
2023/03/14 06:15:21;;;;;;;1.75;0.50;;;10.30;99.90;;;;;;4185324;28;20609;-76
2023/03/14 06:17:22;;;;;;;1.33;0.60;;;10.30;99.90;;;;;;4195495;28;20471;-76
2023/03/14 06:19:23;;;;;;;2.08;0.75;;;10.30;99.90;;;;;;4195272;28;20032;-76
2023/03/14 06:21:24;;;;;;;5.07;0.75;;;10.30;99.90;;;;;;4194068;28;20036;-76
2023/03/14 06:23:25;;;;;;;2.88;0.80;;;10.30;99.90;;;;;;4195212;28;20356;-76
2023/03/14 06:25:26;;;;;;;1.40;0.50;;;10.30;99.90;;;;;;4194605;28;20039;-76
2023/03/14 06:27:26;;;;;;;1.30;0.70;;;10.30;99.90;;;;;;4195423;28;20034;-76
2023/03/14 06:29:27;;;;;;;1.55;0.50;;;10.40;99.90;;;;;;4194582;28;20040;-77
2023/03/14 06:31:28;;;;;;;1.23;0.70;;;10.40;99.90;;;;;;4192755;28;20032;-76
2023/03/14 06:33:29;;;;;;;2.28;0.60;;;10.40;99.90;;;;;;4196910;28;20040;-76
2023/03/14 06:35:29;;;;;;;3.08;0.52;;;10.40;99.90;;;;;;4197573;28;20040;-76
2023/03/14 06:37:30;;;;;;;2.47;0.60;;;10.40;99.90;;;;;;4198305;28;20473;-76
2023/03/14 06:39:31;;;;;;;2.55;0.57;;;10.50;99.90;;;;;;4198361;28;20060;-76
2023/03/14 06:41:32;;;;;;;2.60;0.50;;;10.40;99.90;;;;;;4197621;28;20036;-76
2023/03/14 06:43:33;;;;;;;0.50;0.50;;;10.40;99.90;;;;;;4197774;28;20418;-75
2023/03/14 06:45:34;;;;;;;0.40;0.30;;;10.40;99.90;;;;;;4197046;28;20032;-76
2023/03/14 06:47:34;;;;;;;1.05;0.32;;;10.40;99.90;;;;;;4197843;28;20418;-75
2023/03/14 06:49:35;;;;;;;1.52;0.30;;;10.40;99.90;;;;;;4197945;28;20037;-75
2023/03/14 06:51:35;;;;;;;0.50;0.50;;;10.50;99.90;;;;;;4193152;28;20028;-75
2023/03/14 06:53:36;;;;;;;2.20;0.40;;;10.50;99.90;;;;;;4197722;28;20554;-76
2023/03/14 06:55:36;;;;;;;2.72;0.80;;;10.50;99.90;;;;;;4197210;28;20067;-76
2023/03/14 06:57:37;;;;;;;1.23;0.70;;;10.50;99.90;;;;;;4198119;28;20094;-75
2023/03/14 06:59:37;;;;;;;0.70;0.50;;;10.60;99.90;;;;;;4198081;28;20033;-79
2023/03/14 07:01:38;;;;;;;1.25;0.60;;;10.50;99.90;;;;;;4197230;28;20035;-78
2023/03/14 07:03:39;;;;;;;0.75;0.52;;;10.60;99.90;;;;;;4198021;28;20032;-79
2023/03/14 07:05:40;;;;;;;1.45;0.47;;;10.50;99.90;;;;;;4197159;28;20048;-78
2023/03/14 07:07:42;;;;;;;0.90;0.65;;;10.50;99.90;;;;;;4197599;28;20048;-79
2023/03/14 07:09:42;;;;;;;0.93;0.50;;;10.60;99.90;;;;;;4197819;28;20087;-79
2023/03/14 07:11:43;;;;;;;2.33;0.55;;;10.60;99.90;;;;;;4197271;28;20064;-79
2023/03/14 07:13:44;;;;;;;0.57;0.55;;;10.60;99.90;;;;;;4197806;28;20037;-79
2023/03/14 07:15:45;;;;;;;0.95;0.70;;;10.60;99.90;;;;;;4197006;28;20356;-79
2023/03/14 07:17:47;;;;;;;1.00;0.50;;;10.60;99.90;;;;;;4197932;28;20044;-79
2023/03/14 07:19:48;;;;;;;0.88;0.68;;;10.60;99.90;;;;;;4197702;28;20559;-78
2023/03/14 07:21:48;;;;;;;2.95;0.65;;;10.70;99.90;;;;;;4196920;28;20040;-79
2023/03/14 07:23:49;;;;;;;2.30;0.75;;;10.60;99.90;;;;;;4197499;28;20040;-79
2023/03/14 07:25:50;;;;;;;1.25;0.52;;;10.60;99.90;;;;;;4197122;28;20024;-78
2023/03/14 07:27:51;;;;;;;1.88;1.02;;;10.60;99.90;;;;;;4197340;28;20111;-79
2023/03/14 07:29:52;;;;;;;1.75;1.00;;;10.70;99.90;;;;;;4197875;28;24917;-79
2023/03/14 07:31:52;;;;;;;1.63;0.73;;;10.70;99.90;;;;;;4192334;28;20059;-79
2023/03/14 07:33:53;;;;;;;2.25;1.00;;;10.60;99.90;;;;;;4191164;28;20024;-79
2023/03/14 07:35:53;;;;;;;1.85;1.00;;;10.60;99.90;;;;;;4193509;28;20044;-79
2023/03/14 07:37:54;;;;;;;2.28;0.70;;;10.60;99.90;;;;;;4193828;28;20067;-79
2023/03/14 07:39:54;;;;;;;0.85;0.52;;;10.60;99.90;;;;;;4187643;28;20175;-79
2023/03/14 07:41:55;;;;;;;2.30;0.80;;;10.60;99.90;;;;;;4188313;28;20120;-80
2023/03/14 07:43:55;;;;;;;1.00;0.85;;;10.60;99.90;;;;;;4188112;28;20037;-80
2023/03/14 07:45:56;;;;;;;1.80;0.70;;;10.70;99.90;;;;;;4188544;28;20175;-79
2023/03/14 07:47:57;;;;;;;2.42;1.00;;;10.70;99.90;;;;;;4194897;28;20032;-79
2023/03/14 07:49:58;;;;;;;2.47;1.13;;;10.70;99.90;;;;;;4195057;28;20420;-75
2023/03/14 07:51:58;;;;;;;1.48;0.93;;;10.70;99.90;;;;;;4194895;28;20426;-76
2023/03/14 07:54:00;;;;;;;2.42;1.13;;;10.80;99.90;;;;;;4197468;28;20035;-78
2023/03/14 07:56:00;;;;;;;2.88;0.70;;;10.70;99.90;;;;;;4196990;28;20475;-79
2023/03/14 07:58:01;;;;;;;4.72;1.00;;;10.80;99.90;;;;;;4197551;28;20036;-79
2023/03/14 08:00:05;;;;;;;1.10;0.90;;;10.90;99.90;;;;;;4197509;28;20108;-79
2023/03/14 08:02:10;;;;;;;1.45;0.80;;;10.90;99.90;;;;;;4193553;28;20039;-78
2023/03/14 08:04:11;;;;;;;1.95;0.70;;;10.90;99.90;;;;;;4191689;28;20097;-79
2023/03/14 08:06:11;;;;;;;0.95;0.63;;;10.90;99.90;;;;;;4193002;28;20534;-78
2023/03/14 08:08:12;;;;;;;0.70;0.60;;;10.90;99.90;;;;;;4192605;28;20028;-78
2023/03/14 08:10:20;;;;;;;0.50;0.47;;;10.90;99.90;;;;;;4183315;28;20079;-77
2023/03/14 08:12:21;;;;;;;0.82;0.68;;;11.00;99.90;;;;;;4194178;28;20036;-78
2023/03/14 08:14:23;;;;;;;0.70;0.50;;;11.00;99.90;;;;;;4194883;28;20067;-78
2023/03/14 08:16:24;;;;;;;1.58;0.82;;;11.10;99.90;;;;;;4191829;28;20029;-78
2023/03/14 08:18:24;;;;;;;1.63;0.90;;;11.00;99.90;;;;;;4191497;28;20141;-78
2023/03/14 08:20:28;;;;;;;0.80;0.80;;;11.10;99.90;;;;;;4193778;28;21121;-79
2023/03/14 08:22:28;;;;;;;2.53;0.93;;;11.10;99.90;;;;;;4194539;28;20029;-78
2023/03/14 08:24:29;;;;;;;1.35;0.70;;;11.10;99.90;;;;;;4191568;28;20479;-79
2023/03/14 08:26:29;;;;;;;1.15;0.60;;;11.20;99.90;;;;;;4193805;28;20395;-79
2023/03/14 08:28:32;;;;;;;0.50;0.50;;;11.20;99.90;;;;;;4190100;28;20068;-79
2023/03/14 08:30:33;;;;;;;0.75;0.55;;;11.20;99.90;;;;;;4192444;28;20041;-73
2023/03/14 08:32:33;;;;;;;0.90;0.60;;;11.20;99.90;;;;;;4194615;28;20059;-76
2023/03/14 08:34:34;;;;;;;1.17;0.68;;;11.20;99.90;;;;;;4194263;28;20395;-78
2023/03/14 08:36:35;;;;;;;1.95;0.90;;;11.20;99.90;;;;;;4193566;28;20082;-75
2023/03/14 08:38:35;;;;;;;0.60;0.60;;;11.20;99.90;;;;;;4190578;28;20036;-79
2023/03/14 08:40:36;;;;;;;1.55;0.93;;;11.20;99.90;;;;;;4193095;28;20036;-80
2023/03/14 08:42:38;;;;;;;0.60;0.50;;;11.20;99.90;;;;;;4194399;28;20037;-79
2023/03/14 08:44:38;;;;;;;0.50;0.50;;;11.20;99.90;;;;;;4193774;28;20483;-79
2023/03/14 08:46:39;;;;;;;1.15;0.70;;;11.20;99.90;;;;;;4190422;28;20039;-79
2023/03/14 08:48:40;;;;;;;0.68;0.47;;;11.20;99.90;;;;;;4193347;28;20033;-80
2023/03/14 08:50:40;;;;;;;0.73;0.60;;;11.20;99.90;;;;;;4193365;28;20166;-79
2023/03/14 08:52:41;;;;;;;6.32;1.02;;;11.20;99.90;;;;;;4193265;28;20040;-78
2023/03/14 08:54:43;;;;;;;3.13;0.82;;;10.90;99.90;;;;;;4194192;28;20478;-78
2023/03/14 08:56:44;;;;;;;2.58;0.55;;;10.60;99.90;;;;;;4192249;28;20407;-77
2023/03/14 08:58:44;;;;;;;1.50;0.40;;;10.30;99.90;;;;;;4194203;28;20036;-79
2023/03/14 09:00:45;;;;;;;0.95;0.40;;;10.20;99.90;;;;;;4193185;28;20063;-78
2023/03/14 09:02:45;;;;;;;0.60;0.30;;;10.00;99.90;;;;;;4193802;28;20036;-79
2023/03/14 09:04:46;;;;;;;0.55;0.30;;;9.80;99.90;;;;;;4193502;28;20045;-78
2023/03/14 09:06:46;;;;;;;4.18;0.50;;;9.80;99.90;;;;;;4193061;28;20090;-78
2023/03/14 09:08:47;;;;;;;2.13;0.65;;;9.70;99.90;;;;;;4192140;28;20067;-81
2023/03/14 09:10:48;;;;;;;0.60;0.40;;;9.70;99.90;;;;;;4193368;28;20036;-78
2023/03/14 09:12:48;;;;;;;0.73;0.35;;;9.70;99.90;;;;;;4192045;28;20499;-78
2023/03/14 09:14:49;;;;;;;1.55;0.52;;;9.50;99.90;;;;;;4193953;28;20028;-79
2023/03/14 09:16:50;;;;;;;0.80;0.40;;;9.50;99.90;;;;;;4190793;28;20024;-79
2023/03/14 09:18:54;;;;;;;3.03;0.45;;;9.40;99.90;;;;;;4191684;28;20446;-78
2023/03/14 09:20:55;;;;;;;0.70;0.30;;;9.30;99.90;;;;;;4193336;28;20036;-78
2023/03/14 09:22:56;;;;;;;0.52;0.52;;;9.30;99.90;;;;;;4179597;28;20123;-78
2023/03/14 09:24:56;;;;;;;0.95;0.55;;;9.20;99.90;;;;;;4188531;28;20082;-78
2023/03/14 09:26:58;;;;;;;1.08;0.60;;;9.20;99.90;;;;;;4190524;28;20028;-78
2023/03/14 09:28:58;;;;;;;0.63;0.47;;;9.20;99.90;;;;;;4190433;28;20036;-78
2023/03/14 09:31:10;;;;;;;1.95;1.33;;;9.30;99.90;;;;;;4191399;28;20563;-78
2023/03/14 09:33:10;;;;;;;1.75;1.08;;;9.20;99.90;;;;;;4190157;28;20028;-77
2023/03/14 09:35:11;;;;;;;1.80;0.95;;;9.20;99.90;;;;;;4192770;28;20031;-77
2023/03/14 09:37:11;;;;;;;2.58;1.08;;;9.20;99.90;;;;;;4190108;28;20479;-78
2023/03/14 09:39:12;;;;;;;3.40;1.25;;;9.20;99.90;;;;;;4192305;28;20398;-78
2023/03/14 09:41:17;;;;;;;6.57;1.30;;;9.20;99.90;;;;;;4189663;28;20090;-78
2023/03/14 09:43:18;;;;;;;2.72;1.70;;;9.10;99.90;;;;;;4191682;28;20402;-78
2023/03/14 09:45:31;;;;;;;2.70;1.60;;;9.10;99.90;;;;;;4192562;28;20108;-77
2023/03/14 09:47:33;;;;;;;2.92;1.40;;;9.10;99.90;;;;;;4190223;28;20028;-77
2023/03/14 09:49:37;;;;;;;2.42;1.80;;;9.00;99.90;;;;;;4189322;28;20056;-75
2023/03/14 09:51:38;;;;;;;3.17;1.38;;;9.10;99.90;;;;;;4191010;28;20033;-78
2023/03/14 09:53:45;;;;;;;2.58;1.58;;;9.00;99.90;;;;;;4193388;28;20021;-78
2023/03/14 09:55:48;;;;;;;3.28;1.80;;;9.10;99.90;;;;;;4190854;28;20036;-77
2023/03/14 09:57:54;;;;;;;5.10;1.63;;;9.10;99.90;;;;;;4191561;28;20029;-79
2023/03/14 10:00:00;;;;;;;4.07;1.60;;;9.10;99.90;;;;;;4192676;28;20117;-79
2023/03/14 10:02:05;;;;;;;3.10;1.50;;;9.10;99.90;;;;;;4190960;28;20067;-79
2023/03/14 10:04:13;;;;;;;3.35;1.85;;;9.10;99.90;;;;;;4188854;28;20483;-79
2023/03/14 10:06:14;;;;;;;2.70;1.65;;;9.20;99.90;;;;;;4190696;28;20036;-79
2023/03/14 10:08:15;;;;;;;1.73;1.38;;;9.10;99.90;;;;;;4192468;28;20033;-78
2023/03/14 10:10:22;;;;;;;2.75;1.30;;;9.10;99.90;;;;;;4186833;28;20092;-83
2023/03/14 10:12:36;;;;;;;1.60;1.35;;;9.20;99.90;;;;;;4189624;28;20041;-80
2023/03/14 10:14:44;;;;;;;1.52;1.02;;;9.10;99.90;;;;;;4181593;28;20032;-79
2023/03/14 10:16:46;;;;;;;1.70;1.25;;;9.20;99.90;;;;;;4189230;28;20443;-80
2023/03/14 10:18:46;;;;;;;2.97;0.80;;;9.20;99.90;;;;;;4190658;28;20119;-80
2023/03/14 10:20:49;;;;;;;1.45;0.98;;;9.10;99.90;;;;;;4190559;28;20361;-79
2023/03/14 10:22:51;;;;;;;1.65;0.88;;;8.90;99.90;;;;;;4185221;28;20036;-79
2023/03/14 10:24:56;;;;;;;2.35;0.50;;;8.70;99.90;;;;;;4182358;28;20516;-78
2023/03/14 10:27:02;;;;;;;0.70;0.50;;;8.60;99.90;;;;;;4187482;28;20526;-79
2023/03/14 10:29:13;;;;;;;5.22;0.82;;;8.60;99.90;;;;;;4189853;28;20544;-79
2023/03/14 10:31:14;;;;;;;1.95;0.70;;;8.50;99.90;;;;;;4184680;28;20104;-78
2023/03/14 10:33:18;;;;;;;2.05;0.40;;;8.50;99.90;;;;;;4184201;28;20029;-78
2023/03/14 10:35:22;;;;;;;3.92;0.75;;;8.50;99.90;;;;;;4189442;28;20036;-78